TimeCST,TemperatureF,Dew PointF,Humidity,Sea Level PressureIn,VisibilityMPH,Wind Direction,Wind SpeedMPH,Gust SpeedMPH,PrecipitationIn,Events,Conditions,WindDirDegrees,DateUTC
12:15 AM,-8.3,-15.3,71,30.36,10.0,South,9.2,-,N/A,,Clear,180,2014-03-03 06:15:00
12:35 AM,-8.0,-15.2,71,30.35,10.0,South,8.1,-,N/A,,Clear,170,2014-03-03 06:35:00
12:55 AM,-9.4,-16.6,71,30.35,10.0,South,5.8,-,N/A,,Clear,170,2014-03-03 06:55:00
1:15 AM,-7.6,-14.6,71,30.33,10.0,South,8.1,-,N/A,,Clear,170,2014-03-03 07:15:00
1:35 AM,-7.1,-14.8,69,30.31,10.0,South,11.5,-,N/A,,Clear,170,2014-03-03 07:35:00
1:55 AM,-6.7,-14.3,70,30.31,10.0,South,11.5,-,N/A,,Clear,170,2014-03-03 07:55:00
2:15 AM,-5.4,-13.2,69,30.30,10.0,South,12.7,-,N/A,,Clear,170,2014-03-03 08:15:00
2:35 AM,-4.7,-12.3,70,30.29,10.0,South,12.7,-,N/A,,Clear,170,2014-03-03 08:35:00
2:55 AM,-4.0,-11.7,69,30.27,10.0,South,11.5,-,N/A,,Clear,170,2014-03-03 08:55:00
3:15 AM,-4.0,-11.4,71,30.25,10.0,South,11.5,-,N/A,,Clear,170,2014-03-03 09:15:00
3:35 AM,-2.7,-10.3,70,30.24,10.0,South,13.8,-,N/A,,Clear,180,2014-03-03 09:35:00
3:55 AM,-3.1,-10.3,71,30.22,10.0,South,12.7,-,N/A,,Clear,170,2014-03-03 09:55:00
4:15 AM,-3.3,-10.3,72,30.21,10.0,South,13.8,-,N/A,,Clear,170,2014-03-03 10:15:00
4:35 AM,-2.6,-9.4,73,30.19,10.0,South,15.0,-,N/A,,Clear,180,2014-03-03 10:35:00
4:55 AM,-2.4,-9.4,72,30.17,10.0,South,16.1,-,N/A,,Clear,170,2014-03-03 10:55:00
5:15 AM,-2.2,-9.0,73,30.17,10.0,South,12.7,-,N/A,,Clear,170,2014-03-03 11:15:00
5:35 AM,-2.2,-8.7,74,30.15,10.0,South,15.0,-,N/A,,Clear,170,2014-03-03 11:35:00
5:55 AM,-0.9,-7.8,73,30.15,10.0,South,16.1,-,N/A,,Clear,170,2014-03-03 11:55:00
6:15 AM,-0.6,-6.9,75,30.14,10.0,South,16.1,-,N/A,,Clear,170,2014-03-03 12:15:00
6:35 AM,-0.4,-6.9,74,30.14,10.0,South,13.8,-,N/A,,Clear,170,2014-03-03 12:35:00
6:55 AM,-0.0,-6.3,75,30.11,10.0,South,15.0,-,N/A,,Clear,170,2014-03-03 12:55:00
7:15 AM,2.1,-4.7,73,30.10,10.0,South,17.3,20.7,N/A,,Clear,170,2014-03-03 13:15:00
7:35 AM,3.2,-4.0,72,30.09,10.0,South,23.0,27.6,N/A,,Clear,180,2014-03-03 13:35:00
7:55 AM,3.9,-3.1,73,30.07,4.0,South,25.3,31.1,N/A,,Haze,190,2014-03-03 13:55:00
8:15 AM,4.6,-2.4,73,30.07,5.0,South,25.3,-,N/A,,Haze,190,2014-03-03 14:15:00
8:35 AM,5.4,-2.0,72,30.07,10.0,South,21.9,25.3,N/A,,Clear,180,2014-03-03 14:35:00
8:55 AM,7.2,-0.6,71,30.07,7.0,South,20.7,27.6,N/A,,Clear,190,2014-03-03 14:55:00
9:15 AM,8.4,0.5,70,30.06,10.0,South,23.0,28.8,N/A,,Clear,190,2014-03-03 15:15:00
9:35 AM,9.5,1.4,70,30.05,7.0,South,26.5,-,N/A,,Clear,190,2014-03-03 15:35:00
9:55 AM,10.8,2.7,70,30.04,7.0,SSW,26.5,32.2,N/A,,Clear,200,2014-03-03 15:55:00
10:15 AM,12.0,3.9,70,30.04,4.0,South,21.9,32.2,N/A,,Haze,190,2014-03-03 16:15:00
10:35 AM,13.1,4.8,70,30.03,7.0,South,21.9,-,N/A,,Mostly Cloudy,190,2014-03-03 16:35:00
10:55 AM,14.0,5.5,69,30.02,7.0,South,23.0,28.8,N/A,,Mostly Cloudy,190,2014-03-03 16:55:00
11:36 AM,15.8,8.6,73,29.99,7.0,South,24.2,32.2,N/A,,Mostly Cloudy,190,2014-03-03 17:36:00
11:56 AM,17.6,8.6,68,29.97,5.0,South,28.8,34.5,N/A,,Haze,190,2014-03-03 17:56:00
12:16 PM,19.4,10.4,68,29.96,4.0,South,28.8,35.7,N/A,,Haze,190,2014-03-03 18:16:00
12:36 PM,19.4,10.4,68,29.95,4.0,South,20.7,38.0,N/A,,Haze,190,2014-03-03 18:36:00
12:59 PM,21.2,12.2,68,29.94,5.0,SSW,20.7,31.1,N/A,,Haze,200,2014-03-03 18:59:00
1:18 PM,21.2,12.2,68,29.95,7.0,SSW,21.9,31.1,N/A,,Clear,200,2014-03-03 19:18:00
1:36 PM,23.0,14.0,68,29.92,7.0,SSW,27.6,32.2,N/A,,Clear,200,2014-03-03 19:36:00
1:56 PM,24.8,15.8,69,29.93,10.0,South,19.6,25.3,N/A,,Clear,190,2014-03-03 19:56:00
2:16 PM,24.8,15.8,69,29.93,10.0,SSW,20.7,26.5,N/A,,Clear,210,2014-03-03 20:16:00
2:36 PM,26.6,15.8,64,29.93,10.0,SSW,18.4,-,N/A,,Clear,210,2014-03-03 20:36:00
2:56 PM,28.4,17.6,64,29.93,10.0,SW,17.3,20.7,N/A,,Clear,220,2014-03-03 20:56:00
3:16 PM,28.4,19.4,69,29.92,10.0,SW,18.4,-,N/A,,Clear,220,2014-03-03 21:16:00
3:36 PM,28.4,19.4,69,29.92,10.0,SSW,15.0,-,N/A,,Clear,210,2014-03-03 21:36:00
3:56 PM,30.2,19.4,64,29.91,10.0,SW,12.7,-,N/A,,Clear,220,2014-03-03 21:56:00
4:16 PM,30.2,21.2,69,29.91,10.0,SW,15.0,-,N/A,,Clear,230,2014-03-03 22:16:00
4:39 PM,32.0,21.2,64,29.92,10.0,SW,10.4,-,N/A,,Clear,230,2014-03-03 22:39:00
4:59 PM,33.8,23.0,65,29.92,10.0,SW,10.4,-,N/A,,Clear,230,2014-03-03 22:59:00
5:16 PM,33.8,23.0,65,29.92,10.0,SW,9.2,-,N/A,,Clear,220,2014-03-03 23:16:00
5:39 PM,32.0,23.0,69,29.92,10.0,SW,6.9,-,N/A,,Clear,230,2014-03-03 23:39:00
5:59 PM,32.0,23.0,69,29.92,10.0,SW,4.6,-,N/A,,Clear,220,2014-03-03 23:59:00
6:16 PM,30.2,21.2,69,29.94,10.0,SW,5.8,-,N/A,,Clear,220,2014-03-04 00:16:00
6:36 PM,28.4,21.2,74,29.94,10.0,SW,4.6,-,N/A,,Clear,230,2014-03-04 00:36:00
6:56 PM,28.4,21.2,74,29.94,10.0,Calm,Calm,-,N/A,,Clear,0,2014-03-04 00:56:00
7:16 PM,28.4,21.2,74,29.94,10.0,Calm,Calm,-,N/A,,Clear,0,2014-03-04 01:16:00
7:36 PM,26.6,21.2,80,29.94,10.0,Calm,Calm,-,N/A,,Clear,0,2014-03-04 01:36:00
8:16 PM,24.8,19.4,80,29.95,10.0,NW,4.6,-,N/A,,Clear,310,2014-03-04 02:16:00
8:39 PM,23.0,19.4,86,29.95,10.0,WNW,3.5,-,N/A,,Clear,300,2014-03-04 02:39:00
8:59 PM,23.0,17.6,80,29.94,10.0,NW,3.5,-,N/A,,Clear,320,2014-03-04 02:59:00
9:39 PM,19.4,15.8,86,29.94,10.0,NW,5.8,-,N/A,,Clear,310,2014-03-04 03:39:00
9:56 PM,19.4,17.6,93,29.95,10.0,NW,4.6,-,N/A,,Clear,320,2014-03-04 03:56:00
10:16 PM,19.4,15.8,86,29.95,10.0,NW,4.6,-,N/A,,Clear,310,2014-03-04 04:16:00
10:39 PM,15.8,12.2,86,29.96,10.0,Calm,Calm,-,N/A,,Clear,0,2014-03-04 04:39:00
11:59 PM,14.0,12.2,93,29.94,10.0,Calm,Calm,-,N/A,,Clear,0,2014-03-04 05:59:00